createdAt,value
2022-09-23T00:01:22.289Z,101973.13
2022-09-23T00:03:50.297Z,101973.28
2022-09-23T00:06:20.549Z,101971.34
2022-09-23T00:08:51.615Z,101971.97
2022-09-23T00:11:27.592Z,101967.59
2022-09-23T00:13:57.904Z,101973.28
2022-09-23T00:16:32.710Z,101977.66
2022-09-23T00:19:04.081Z,101961.78
2022-09-23T00:21:31.497Z,101971.19
2022-09-23T00:23:59.048Z,101961.56
2022-09-23T00:26:27.659Z,101961.78
2022-09-23T00:28:55.149Z,101957.94
2022-09-23T00:31:25.037Z,101955.84
2022-09-23T00:34:00.688Z,101950.53
2022-09-23T00:36:32.253Z,101946.97
2022-09-23T00:39:00.159Z,101949.53
2022-09-23T00:41:27.910Z,101948.59
2022-09-23T00:43:58.446Z,101949.97
2022-09-23T00:46:32.449Z,101937.66
2022-09-23T00:49:23.181Z,101944.84
2022-09-23T00:51:54.713Z,101940.47
2022-09-23T00:54:27.451Z,101938.84
2022-09-23T00:56:57.077Z,101934.19
2022-09-23T00:59:26.211Z,101944.78
2022-09-23T01:01:54.928Z,101931.44
2022-09-23T01:04:24.695Z,101932.13
2022-09-23T01:06:52.241Z,101927.94
2022-09-23T01:09:21.111Z,101928.03
2022-09-23T01:12:10.206Z,101931.53
2022-09-23T01:14:57.404Z,101936.97
2022-09-23T01:17:35.230Z,101936.31
2022-09-23T01:20:16.734Z,101925.78
2022-09-23T01:23:18.182Z,101924.94
2022-09-23T01:26:05.293Z,101930.22
2022-09-23T01:29:29.523Z,101925.03
2022-09-23T01:32:08.824Z,101931.31
2022-09-23T01:34:48.529Z,101924.34
2022-09-23T01:37:45.777Z,101909.16
2022-09-23T01:40:22.725Z,101911.63
2022-09-23T01:42:52.949Z,101912.56
2022-09-23T01:45:20.393Z,101913.44
2022-09-23T01:48:17.582Z,101911.63
2022-09-23T01:51:02.044Z,101929.47
2022-09-23T01:53:37.133Z,101921.94
2022-09-23T01:56:29.448Z,101921.75
2022-09-23T01:59:29.217Z,101929.97
2022-09-23T02:02:06.804Z,101921.16
2022-09-23T02:04:45.792Z,101922.94
2022-09-23T02:07:23.865Z,101922.09
2022-09-23T02:10:16.776Z,101924.81
2022-09-23T02:12:49.974Z,101915.94
2022-09-23T02:15:25.019Z,101915.94
2022-09-23T02:18:26.327Z,101914.16
2022-09-23T02:21:00.445Z,101910.97
2022-09-23T02:23:34.087Z,101916.59
2022-09-23T02:26:30.422Z,101910.38
2022-09-23T02:29:19.104Z,101905.91
2022-09-23T02:32:02.001Z,101913.84
2022-09-23T02:34:41.457Z,101910.44
2022-09-23T02:37:21.293Z,101909.00
2022-09-23T02:40:09.041Z,101917.91
2022-09-23T02:42:47.462Z,101914.88
2022-09-23T02:45:15.515Z,101919.09
2022-09-23T02:47:47.316Z,101914.31
2022-09-23T02:50:15.084Z,101907.47
2022-09-23T02:52:43.207Z,101909.09
2022-09-23T02:55:12.175Z,101903.56
2022-09-23T02:57:39.687Z,101908.28
2022-09-23T03:00:07.925Z,101906.72
2022-09-23T03:03:05.389Z,101910.44
2022-09-23T03:05:42.175Z,101912.06
2022-09-23T03:08:45.584Z,101904.13
2022-09-23T03:11:14.009Z,101910.91
2022-09-23T03:13:56.134Z,101903.91
2022-09-23T03:16:29.182Z,101905.00
2022-09-23T03:19:24.178Z,101906.78
2022-09-23T03:21:56.986Z,101913.47
2022-09-23T03:24:25.362Z,101900.06
2022-09-23T03:26:54.953Z,101896.66
2022-09-23T03:29:23.581Z,101903.22
2022-09-23T03:31:52.058Z,101905.31
2022-09-23T03:34:29.790Z,101902.16
2022-09-23T03:37:27.122Z,101900.91
2022-09-23T03:40:15.162Z,101906.09
2022-09-23T03:42:42.901Z,101901.06
2022-09-23T03:45:18.592Z,101901.81
2022-09-23T03:47:46.462Z,101903.00
2022-09-23T03:50:14.407Z,101897.63
2022-09-23T03:52:41.975Z,101902.22
2022-09-23T03:55:09.976Z,101902.31
2022-09-23T03:57:38.090Z,101895.06
2022-09-23T04:00:07.553Z,101892.16
2022-09-23T04:02:35.585Z,101897.28
2022-09-23T04:05:04.011Z,101895.59
2022-09-23T04:07:31.520Z,101896.63
2022-09-23T04:09:59.043Z,101898.16
2022-09-23T04:12:28.865Z,101891.88
2022-09-23T04:14:56.690Z,101884.88
2022-09-23T04:17:24.815Z,101882.97
2022-09-23T04:19:52.342Z,101880.16
2022-09-23T04:22:20.180Z,101886.25
2022-09-23T04:24:47.957Z,101883.44
2022-09-23T04:27:15.765Z,101889.66
2022-09-23T04:29:44.262Z,101885.13
2022-09-23T04:32:11.856Z,101889.41
2022-09-23T04:34:39.604Z,101888.22
2022-09-23T04:37:07.404Z,101890.88
2022-09-23T04:39:35.169Z,101890.53
2022-09-23T04:42:04.340Z,101890.38
2022-09-23T04:44:32.085Z,101891.38
2022-09-23T04:46:59.654Z,101889.78
2022-09-23T04:49:27.176Z,101891.47
2022-09-23T04:51:55.115Z,101896.00
2022-09-23T04:54:22.937Z,101896.84
2022-09-23T04:56:50.531Z,101895.31
2022-09-23T04:59:17.996Z,101899.56
2022-09-23T05:01:45.493Z,101903.00
2022-09-23T05:04:15.601Z,101895.06
2022-09-23T05:06:45.893Z,101903.06
2022-09-23T05:09:17.497Z,101902.91
2022-09-23T05:11:46.037Z,101909.22
2022-09-23T05:14:13.953Z,101901.81
2022-09-23T05:16:41.477Z,101901.75
2022-09-23T05:19:08.992Z,101900.88
2022-09-23T05:21:37.838Z,101895.06
2022-09-23T05:24:05.964Z,101893.69
2022-09-23T05:26:33.503Z,101891.41
2022-09-23T05:29:01.128Z,101896.53
2022-09-23T05:31:30.273Z,101890.13
2022-09-23T05:34:02.257Z,101891.56
2022-09-23T05:36:37.591Z,101893.13
2022-09-23T05:39:06.755Z,101898.19
2022-09-23T05:41:34.574Z,101895.94
2022-09-23T05:44:02.521Z,101898.25
2022-09-23T05:46:31.097Z,101893.63
2022-09-23T05:49:03.007Z,101898.00
2022-09-23T05:51:32.880Z,101900.56
2022-09-23T05:54:02.980Z,101895.00
2022-09-23T05:56:32.041Z,101887.97
2022-09-23T05:59:01.517Z,101891.13
2022-09-23T06:01:32.257Z,101891.31
2022-09-23T06:04:00.362Z,101891.47
2022-09-23T06:06:29.246Z,101888.16
2022-09-23T06:08:58.637Z,101894.06
2022-09-23T06:11:26.144Z,101885.31
2022-09-23T06:14:01.206Z,101893.97
2022-09-23T06:16:29.881Z,101889.53
2022-09-23T06:18:59.688Z,101888.66
2022-09-23T06:21:30.984Z,101893.19
2022-09-23T06:24:00.610Z,101895.00
2022-09-23T06:26:31.004Z,101890.81
2022-09-23T06:28:58.246Z,101893.03
2022-09-23T06:31:26.193Z,101885.84
2022-09-23T06:34:03.886Z,101891.25
2022-09-23T06:36:43.429Z,101884.81
2022-09-23T06:39:11.641Z,101889.69
2022-09-23T06:41:39.440Z,101890.38
2022-09-23T06:44:06.837Z,101891.22
2022-09-23T06:46:34.205Z,101892.50
2022-09-23T06:49:03.286Z,101891.13
2022-09-23T06:51:30.773Z,101891.00
2022-09-23T06:53:58.380Z,101898.75
2022-09-23T06:56:25.819Z,101891.06
2022-09-23T06:58:53.337Z,101888.44
2022-09-23T07:01:21.241Z,101887.94
2022-09-23T07:03:48.704Z,101892.03
2022-09-23T07:06:17.191Z,101889.00
2022-09-23T07:08:47.090Z,101893.00
2022-09-23T07:11:15.459Z,101881.66
2022-09-23T07:13:43.487Z,101879.16
2022-09-23T07:16:11.455Z,101874.00
2022-09-23T07:18:39.602Z,101880.84
2022-09-23T07:21:08.679Z,101881.16
2022-09-23T07:23:37.882Z,101873.63
2022-09-23T07:26:05.916Z,101871.53
2022-09-23T07:28:33.428Z,101873.63
2022-09-23T07:31:07.802Z,101869.94
2022-09-23T07:33:36.360Z,101873.81
2022-09-23T07:36:06.696Z,101871.81
2022-09-23T07:38:34.182Z,101874.47
2022-09-23T07:41:05.607Z,101880.28
2022-09-23T07:43:32.967Z,101876.59
2022-09-23T07:46:05.643Z,101872.28
2022-09-23T07:48:34.503Z,101871.84
2022-09-23T07:51:08.094Z,101870.59
2022-09-23T07:53:35.787Z,101865.75
2022-09-23T07:56:06.133Z,101868.56
2022-09-23T07:58:34.585Z,101872.75
2022-09-23T08:01:04.906Z,101863.41
2022-09-23T08:03:32.382Z,101866.50
2022-09-23T08:06:04.495Z,101866.53
2022-09-23T08:08:32.098Z,101863.75
2022-09-23T08:11:05.995Z,101855.66
2022-09-23T08:13:33.665Z,101860.97
2022-09-23T08:16:01.510Z,101857.78
2022-09-23T08:18:29.295Z,101859.91
2022-09-23T08:20:56.677Z,101862.84
2022-09-23T08:23:24.188Z,101860.94
2022-09-23T08:26:00.110Z,101863.28
2022-09-23T08:28:27.949Z,101865.22
2022-09-23T08:30:55.778Z,101866.09
2022-09-23T08:33:23.870Z,101861.06
2022-09-23T08:35:52.192Z,101858.72
2022-09-23T08:38:20.152Z,101867.34
2022-09-23T08:40:49.569Z,101863.28
2022-09-23T08:43:26.582Z,101859.50
2022-09-23T08:45:55.566Z,101863.84
2022-09-23T08:48:29.334Z,101856.34
2022-09-23T08:51:01.912Z,101856.53
2022-09-23T08:53:36.187Z,101853.44
2022-09-23T08:56:10.666Z,101860.91
2022-09-23T08:59:00.242Z,101853.63
2022-09-23T09:01:27.602Z,101851.41
2022-09-23T09:03:59.203Z,101852.22
2022-09-23T09:06:31.037Z,101844.78
2022-09-23T09:09:01.004Z,101845.81
2022-09-23T09:11:40.462Z,101844.78
2022-09-23T09:14:24.843Z,101844.00
2022-09-23T09:17:00.373Z,101841.34
2022-09-23T09:19:37.353Z,101837.38
2022-09-23T09:22:05.746Z,101841.94
2022-09-23T09:24:36.008Z,101842.56
2022-09-23T09:27:11.544Z,101842.31
2022-09-23T09:29:41.853Z,101841.34
2022-09-23T09:32:23.728Z,101839.53
2022-09-23T09:34:56.014Z,101842.72
2022-09-23T09:37:31.581Z,101837.41
2022-09-23T09:39:59.874Z,101841.34
2022-09-23T09:42:30.749Z,101835.44
2022-09-23T09:45:04.254Z,101838.25
2022-09-23T09:47:47.436Z,101841.41
2022-09-23T09:50:21.296Z,101840.94
2022-09-23T09:52:48.709Z,101839.44
2022-09-23T09:55:24.197Z,101837.00
2022-09-23T09:57:56.023Z,101840.56
2022-09-23T10:00:26.785Z,101837.16
2022-09-23T10:02:55.770Z,101835.84
2022-09-23T10:05:46.296Z,101830.69
2022-09-23T10:08:23.248Z,101831.59
2022-09-23T10:11:00.683Z,101830.41
2022-09-23T10:13:30.220Z,101833.19
2022-09-23T10:15:59.060Z,101832.53
2022-09-23T10:18:44.945Z,101835.28
2022-09-23T10:21:14.455Z,101829.78
2022-09-23T10:23:43.791Z,101829.00
2022-09-23T10:26:12.357Z,101831.25
2022-09-23T10:28:50.660Z,101828.88
2022-09-23T10:31:28.569Z,101818.38
2022-09-23T10:33:59.734Z,101817.81
2022-09-23T10:36:31.327Z,101812.00
2022-09-23T10:39:20.553Z,101813.00
2022-09-23T10:42:35.867Z,101809.59
2022-09-23T10:45:24.477Z,101802.59
2022-09-23T10:48:00.896Z,101809.00
2022-09-23T10:50:37.225Z,101799.94
2022-09-23T10:53:12.347Z,101792.41
2022-09-23T10:55:52.031Z,101797.41
2022-09-23T10:58:37.874Z,101792.16
2022-09-23T11:01:23.904Z,101800.72
2022-09-23T11:04:14.813Z,101800.16
2022-09-23T11:06:47.980Z,101799.06
2022-09-23T11:09:22.369Z,101804.06
2022-09-23T11:12:13.941Z,101800.72
2022-09-23T11:14:44.043Z,101806.03
2022-09-23T11:17:29.837Z,101800.88
2022-09-23T11:19:57.806Z,101806.19
2022-09-23T11:22:37.059Z,101800.38
2022-09-23T11:25:04.361Z,101798.19
2022-09-23T11:27:50.234Z,101800.81
2022-09-23T11:30:20.590Z,101793.66
2022-09-23T11:32:53.889Z,101795.06
2022-09-23T11:35:24.464Z,101800.53
2022-09-23T11:38:03.680Z,101794.75
2022-09-23T11:40:32.139Z,101796.22
2022-09-23T11:43:01.679Z,101791.59
2022-09-23T11:45:31.607Z,101791.75
2022-09-23T11:48:20.431Z,101794.88
2022-09-23T11:50:54.100Z,101796.53
2022-09-23T11:53:21.517Z,101795.75
2022-09-23T11:56:25.205Z,101796.00
2022-09-23T11:59:04.893Z,101795.75
2022-09-23T12:01:50.086Z,101796.63
2022-09-23T12:04:21.183Z,101793.47
2022-09-23T12:06:53.174Z,101799.66
2022-09-23T12:09:40.941Z,101799.31
2022-09-23T12:12:17.100Z,101792.25
2022-09-23T12:14:56.596Z,101786.44
2022-09-23T12:17:27.585Z,101795.63
2022-09-23T12:20:13.857Z,101787.41
2022-09-23T12:22:45.892Z,101791.28
2022-09-23T12:25:19.010Z,101790.28
2022-09-23T12:27:49.803Z,101793.72
2022-09-23T12:30:21.651Z,101785.47
2022-09-23T12:32:49.179Z,101786.44
2022-09-23T12:35:25.306Z,101791.06
2022-09-23T12:37:53.190Z,101784.63
2022-09-23T12:40:33.061Z,101777.59
2022-09-23T12:43:01.331Z,101778.44
2022-09-23T12:45:32.719Z,101774.06
2022-09-23T12:48:04.853Z,101776.88
2022-09-23T12:50:58.517Z,101777.34
2022-09-23T12:53:35.067Z,101775.53
2022-09-23T12:56:14.629Z,101769.81
2022-09-23T12:58:42.154Z,101774.53
2022-09-23T13:01:15.372Z,101777.19
2022-09-23T13:04:11.986Z,101768.31
2022-09-23T13:06:41.107Z,101766.72
2022-09-23T13:09:15.341Z,101766.84
2022-09-23T13:11:44.616Z,101769.28
2022-09-23T13:14:15.308Z,101771.72
2022-09-23T13:16:46.389Z,101760.94
2022-09-23T13:19:25.966Z,101760.72
2022-09-23T13:21:53.229Z,101762.16
2022-09-23T13:24:23.222Z,101760.13
2022-09-23T13:26:52.774Z,101758.53
2022-09-23T13:29:29.176Z,101753.44
2022-09-23T13:31:57.988Z,101755.22
2022-09-23T13:34:28.965Z,101754.69
2022-09-23T13:36:56.457Z,101753.19
2022-09-23T13:39:25.167Z,101757.06
2022-09-23T13:41:53.148Z,101759.50
2022-09-23T13:44:21.171Z,101759.09
2022-09-23T13:46:53.875Z,101747.63
2022-09-23T13:49:24.436Z,101754.75
2022-09-23T13:51:54.213Z,101752.56
2022-09-23T13:54:28.999Z,101753.84
2022-09-23T13:56:56.859Z,101752.50
2022-09-23T13:59:24.756Z,101755.50
2022-09-23T14:02:05.771Z,101750.53
2022-09-23T14:04:33.095Z,101742.38
2022-09-23T14:07:01.669Z,101749.06
2022-09-23T14:09:30.518Z,101744.84
2022-09-23T14:11:59.273Z,101749.31
2022-09-23T14:14:29.917Z,101744.84
2022-09-23T14:16:58.556Z,101746.56
2022-09-23T14:19:26.610Z,101745.38
2022-09-23T14:21:54.857Z,101743.69
2022-09-23T14:24:30.307Z,101745.47
2022-09-23T14:26:57.517Z,101747.31
2022-09-23T14:29:26.990Z,101745.47
2022-09-23T14:32:00.781Z,101742.09
2022-09-23T14:34:48.209Z,101743.00
2022-09-23T14:37:37.260Z,101742.16
2022-09-23T14:40:15.140Z,101745.56
2022-09-23T14:42:48.068Z,101741.63
2022-09-23T14:45:25.747Z,101738.75
2022-09-23T14:47:56.771Z,101740.31
2022-09-23T14:50:40.619Z,101736.72
2022-09-23T14:53:19.861Z,101734.19
2022-09-23T14:55:47.692Z,101740.56
2022-09-23T14:58:18.247Z,101731.75
2022-09-23T15:01:00.223Z,101735.22
2022-09-23T15:03:28.548Z,101736.00
2022-09-23T15:05:58.138Z,101736.22
2022-09-23T15:08:27.280Z,101744.31
2022-09-23T15:10:54.991Z,101741.63
2022-09-23T15:13:23.550Z,101737.16
2022-09-23T15:15:54.841Z,101737.25
2022-09-23T15:18:24.702Z,101739.34
2022-09-23T15:21:02.589Z,101736.69
2022-09-23T15:23:35.147Z,101740.56
2022-09-23T15:26:05.447Z,101737.44
2022-09-23T15:28:32.838Z,101735.97
2022-09-23T15:31:00.735Z,101741.91
2022-09-23T15:33:29.883Z,101742.88
2022-09-23T15:35:58.218Z,101738.31
2022-09-23T15:38:27.266Z,101747.97
2022-09-23T15:40:54.621Z,101742.13
2022-09-23T15:43:23.406Z,101738.75
2022-09-23T15:45:51.972Z,101747.69
2022-09-23T15:48:22.720Z,101745.47
2022-09-23T15:50:50.655Z,101747.09
2022-09-23T15:53:20.767Z,101743.56
2022-09-23T15:55:51.655Z,101749.34
2022-09-23T15:58:20.585Z,101749.22
2022-09-23T16:00:56.069Z,101747.19
2022-09-23T16:03:30.140Z,101750.94
2022-09-23T16:06:00.720Z,101745.59
2022-09-23T16:08:29.250Z,101747.31
2022-09-23T16:10:56.856Z,101741.13
2022-09-23T16:13:24.362Z,101737.63
2022-09-23T16:15:52.019Z,101742.22
2022-09-23T16:18:19.877Z,101747.41
2022-09-23T16:20:49.515Z,101742.22
2022-09-23T16:23:16.769Z,101746.06
2022-09-23T16:25:44.543Z,101745.31
2022-09-23T16:28:12.743Z,101750.41
2022-09-23T16:30:40.145Z,101759.78
2022-09-23T16:33:07.440Z,101751.19
2022-09-23T16:35:34.940Z,101759.16
2022-09-23T16:38:02.420Z,101741.59
2022-09-23T16:40:32.204Z,101748.09
2022-09-23T16:43:02.268Z,101747.88
2022-09-23T16:45:31.198Z,101745.09
2022-09-23T16:47:59.519Z,101745.66
2022-09-23T16:50:26.985Z,101748.53
2022-09-23T16:52:57.134Z,101742.22
2022-09-23T16:55:27.435Z,101740.56
2022-09-23T16:57:55.149Z,101742.56
2022-09-23T17:00:41.526Z,101743.44
2022-09-23T17:03:29.232Z,101738.50
2022-09-23T17:05:56.472Z,101738.84
2022-09-23T17:08:23.776Z,101738.09
2022-09-23T17:10:59.187Z,101739.81
2022-09-23T17:13:26.969Z,101745.03
2022-09-23T17:15:54.685Z,101742.91
2022-09-23T17:18:22.059Z,101739.59
2022-09-23T17:20:59.309Z,101737.66
2022-09-23T17:23:27.395Z,101735.00
2022-09-23T17:25:54.671Z,101735.22
2022-09-23T17:28:22.565Z,101739.81
2022-09-23T17:31:00.039Z,101737.78
2022-09-23T17:33:28.462Z,101736.00
2022-09-23T17:36:00.261Z,101739.28
2022-09-23T17:38:29.797Z,101740.44
2022-09-23T17:40:59.211Z,101737.38
2022-09-23T17:43:26.949Z,101729.16
2022-09-23T17:45:56.179Z,101728.44
2022-09-23T17:48:25.424Z,101734.16
2022-09-23T17:50:56.116Z,101733.63
2022-09-23T17:53:24.278Z,101730.97
2022-09-23T17:55:55.729Z,101725.13
2022-09-23T17:58:29.900Z,101731.72
2022-09-23T18:00:57.394Z,101734.59
2022-09-23T18:03:26.356Z,101728.41
2022-09-23T18:05:54.028Z,101736.09
2022-09-23T18:08:21.620Z,101751.31
2022-09-23T18:10:48.895Z,101748.09
2022-09-23T18:13:16.310Z,101737.25
2022-09-23T18:15:43.785Z,101733.53
2022-09-23T18:18:11.376Z,101747.44
2022-09-23T18:20:38.694Z,101748.44
2022-09-23T18:23:06.287Z,101748.53
2022-09-23T18:25:39.577Z,101750.53
2022-09-23T18:28:07.714Z,101752.53
2022-09-23T18:30:35.152Z,101743.97
2022-09-23T18:33:03.425Z,101746.84
2022-09-23T18:35:31.357Z,101751.19
2022-09-23T18:37:58.683Z,101746.94
2022-09-23T18:40:26.219Z,101748.22
2022-09-23T18:42:53.552Z,101746.81
2022-09-23T18:45:20.779Z,101753.09
2022-09-23T18:48:06.305Z,101750.06
2022-09-23T18:50:40.455Z,101747.09
2022-09-23T18:53:08.329Z,101750.69
2022-09-23T18:55:36.359Z,101750.25
2022-09-23T18:58:04.156Z,101743.34
2022-09-23T19:00:31.766Z,101748.75
2022-09-23T19:02:59.519Z,101750.25
2022-09-23T19:05:26.951Z,101743.44
2022-09-23T19:07:54.416Z,101739.50
2022-09-23T19:10:22.226Z,101748.94
2022-09-23T19:12:49.539Z,101745.88
2022-09-23T19:15:19.265Z,101750.13
2022-09-23T19:17:46.873Z,101748.00
2022-09-23T19:20:14.655Z,101744.78
2022-09-23T19:22:45.886Z,101744.91
2022-09-23T19:25:25.486Z,101742.25
2022-09-23T19:27:53.932Z,101741.19
2022-09-23T19:30:21.745Z,101740.66
2022-09-23T19:32:50.350Z,101737.56
2022-09-23T19:35:20.529Z,101736.28
2022-09-23T19:37:49.347Z,101735.44
2022-09-23T19:40:16.893Z,101731.81
2022-09-23T19:42:44.543Z,101731.22
2022-09-23T19:45:12.290Z,101732.59
2022-09-23T19:47:52.425Z,101735.44
2022-09-23T19:50:21.529Z,101728.97
2022-09-23T19:52:51.739Z,101730.03
2022-09-23T19:55:20.086Z,101729.75
2022-09-23T19:57:47.469Z,101732.31
2022-09-23T20:00:15.390Z,101721.63
2022-09-23T20:02:43.415Z,101732.13
2022-09-23T20:05:12.208Z,101731.06
2022-09-23T20:07:41.173Z,101732.56
2022-09-23T20:10:09.997Z,101736.06
2022-09-23T20:12:37.463Z,101732.47
2022-09-23T20:15:05.644Z,101730.41
2022-09-23T20:17:33.302Z,101728.09
2022-09-23T20:20:01.158Z,101719.28
2022-09-23T20:22:33.143Z,101727.81
2022-09-23T20:25:02.586Z,101723.22
2022-09-23T20:27:31.578Z,101720.84
2022-09-23T20:29:59.445Z,101725.53
2022-09-23T20:32:28.219Z,101724.81
2022-09-23T20:34:57.282Z,101722.75
2022-09-23T20:37:25.265Z,101726.88
2022-09-23T20:39:53.265Z,101731.22
2022-09-23T20:42:20.759Z,101731.88
2022-09-23T20:44:48.824Z,101724.44
2022-09-23T20:47:17.095Z,101732.03
2022-09-23T20:49:45.511Z,101729.75
2022-09-23T20:52:14.118Z,101741.88
2022-09-23T20:54:42.188Z,101733.19
2022-09-23T20:57:13.441Z,101737.84
2022-09-23T20:59:40.863Z,101725.72
2022-09-23T21:02:10.266Z,101729.31
2022-09-23T21:04:41.814Z,101732.41
2022-09-23T21:07:09.303Z,101729.88
2022-09-23T21:09:36.789Z,101730.81
2022-09-23T21:12:04.381Z,101730.81
2022-09-23T21:14:32.935Z,101728.38
2022-09-23T21:17:00.303Z,101725.63
2022-09-23T21:19:38.838Z,101734.53
2022-09-23T21:22:06.238Z,101728.03
2022-09-23T21:25:15.796Z,101731.56
2022-09-23T21:27:20.821Z,101734.00
2022-09-23T21:29:48.097Z,101731.44
2022-09-23T21:32:15.398Z,101733.34
2022-09-23T21:34:42.962Z,101729.19
2022-09-23T21:37:16.260Z,101735.34
2022-09-23T21:40:03.729Z,101726.53
2022-09-23T21:42:31.147Z,101734.50
2022-09-23T21:44:58.360Z,101723.31
2022-09-23T21:47:26.142Z,101731.19
2022-09-23T21:49:53.410Z,101726.94
2022-09-23T21:52:20.971Z,101723.31
2022-09-23T21:54:48.441Z,101728.53
2022-09-23T21:57:15.883Z,101727.69
2022-09-23T21:59:43.129Z,101720.97
2022-09-23T22:02:10.426Z,101733.69
2022-09-23T22:04:38.120Z,101727.88
2022-09-23T22:07:05.686Z,101728.75
2022-09-23T22:09:33.092Z,101725.03
2022-09-23T22:12:09.651Z,101724.94
2022-09-23T22:14:38.914Z,101728.75
2022-09-23T22:17:10.424Z,101731.41
2022-09-23T22:19:44.148Z,101735.97
2022-09-23T22:22:14.086Z,101731.78
2022-09-23T22:24:41.894Z,101730.75
2022-09-23T22:27:09.803Z,101723.50
2022-09-23T22:29:55.210Z,101724.38
2022-09-23T22:32:40.839Z,101721.91
2022-09-23T22:35:09.179Z,101729.69
2022-09-23T22:37:37.102Z,101730.94
2022-09-23T22:40:05.913Z,101727.22
2022-09-23T22:42:33.338Z,101733.59
2022-09-23T22:45:00.864Z,101730.81
2022-09-23T22:47:28.305Z,101733.41
2022-09-23T22:49:55.784Z,101735.31
2022-09-23T22:52:24.695Z,101730.81
2022-09-23T22:54:52.029Z,101730.53
2022-09-23T22:57:19.611Z,101726.13
2022-09-23T22:59:48.254Z,101727.72
2022-09-23T23:02:17.095Z,101735.69
2022-09-23T23:04:46.115Z,101741.31
2022-09-23T23:07:14.205Z,101731.34
2022-09-23T23:09:41.750Z,101732.56
2022-09-23T23:12:09.047Z,101728.88
2022-09-23T23:14:36.656Z,101733.03
2022-09-23T23:17:08.526Z,101731.75
2022-09-23T23:19:36.367Z,101739.25
2022-09-23T23:22:04.412Z,101732.63
2022-09-23T23:24:32.469Z,101734.16
2022-09-23T23:27:00.048Z,101733.16
2022-09-23T23:29:27.863Z,101734.16
2022-09-23T23:31:55.412Z,101738.41
2022-09-23T23:34:23.173Z,101739.44
2022-09-23T23:36:55.149Z,101733.81
2022-09-23T23:39:24.012Z,101732.44
2022-09-23T23:41:52.279Z,101739.81
2022-09-23T23:44:19.752Z,101731.13
2022-09-23T23:46:47.270Z,101732.06
2022-09-23T23:49:14.703Z,101730.91
2022-09-23T23:51:45.195Z,101733.69
2022-09-23T23:54:12.659Z,101729.84
2022-09-23T23:56:39.926Z,101731.03
2022-09-23T23:59:07.201Z,101730.84
